Time;durP1;ratioP1;P1;durP2;ratioP2;P2;SDS_P1;SDS_P2;PMS_P1;PMS_P2;Temp;Humidity;BMP_temperature;BMP_pressure;BME280_temperature;BME280_humidity;BME280_pressure;Samples;Min_cycle;Max_cycle;Signal;HPM_P1;HPM_P2
2022/07/18 00:00:07;;;;;;;2.72;2.30;;;15.00;83.10;;;;;;5008263;28;20026;-36
2022/07/18 00:02:33;;;;;;;2.17;1.98;;;15.00;82.40;;;;;;4999946;28;20033;-37
2022/07/18 00:05:00;;;;;;;2.70;2.50;;;15.00;81.10;;;;;;5005598;28;20026;-38
2022/07/18 00:07:26;;;;;;;2.60;2.40;;;15.10;84.70;;;;;;5003047;28;20033;-38
2022/07/18 00:09:52;;;;;;;2.03;1.90;;;15.00;81.90;;;;;;5004474;28;20048;-35
2022/07/18 00:12:18;;;;;;;2.40;2.20;;;15.00;83.20;;;;;;5004530;28;20117;-35
2022/07/18 00:14:45;;;;;;;2.95;2.35;;;15.00;84.20;;;;;;5006254;28;20044;-38
2022/07/18 00:17:11;;;;;;;2.65;2.45;;;14.90;87.80;;;;;;5001008;28;20033;-35
2022/07/18 00:19:38;;;;;;;5.35;2.40;;;14.80;89.60;;;;;;5001234;28;20034;-37
2022/07/18 00:22:05;;;;;;;2.47;2.28;;;14.70;90.00;;;;;;5005896;28;20950;-35
2022/07/18 00:24:34;;;;;;;3.60;2.20;;;14.40;92.40;;;;;;5004549;28;20038;-38
2022/07/18 00:27:02;;;;;;;3.15;2.13;;;14.40;90.30;;;;;;5000835;28;21327;-38
2022/07/18 00:29:28;;;;;;;2.70;2.50;;;14.30;90.90;;;;;;5008723;28;20026;-37
2022/07/18 00:31:54;;;;;;;2.85;2.10;;;14.40;90.50;;;;;;5001837;28;20091;-39
2022/07/18 00:34:23;;;;;;;3.95;2.22;;;14.50;87.40;;;;;;5003915;28;21850;-39
2022/07/18 00:36:51;;;;;;;3.70;2.50;;;14.50;87.10;;;;;;5000463;28;20075;-37
2022/07/18 00:39:17;;;;;;;2.50;2.30;;;14.50;87.50;;;;;;5006410;28;20030;-38
2022/07/18 00:41:48;;;;;;;3.33;2.70;;;14.50;86.10;;;;;;5004664;28;20037;-38
2022/07/18 00:44:22;;;;;;;3.33;2.20;;;14.50;88.90;;;;;;5002729;28;20122;-38
2022/07/18 00:46:50;;;;;;;3.08;2.60;;;14.20;90.30;;;;;;4997523;28;20036;-38
2022/07/18 00:49:17;;;;;;;;;;;14.20;90.00;;;;;;4986607;28;20573;-39
2022/07/18 00:51:44;;;;;;;3.28;2.45;;;13.90;92.40;;;;;;5002075;28;19924;-38
2022/07/18 00:54:10;;;;;;;2.58;2.38;;;13.20;94.90;;;;;;5005038;28;20060;-39
2022/07/18 00:56:37;;;;;;;2.65;2.45;;;13.40;94.90;;;;;;4999691;28;20464;-36
2022/07/18 00:59:04;;;;;;;2.80;2.60;;;13.60;92.30;;;;;;5013886;28;20991;-35
2022/07/18 01:01:48;;;;;;;3.13;2.42;;;13.80;91.50;;;;;;5003960;28;20037;-32
2022/07/18 01:04:22;;;;;;;3.28;2.47;;;13.70;91.40;;;;;;5003830;28;20160;-31
2022/07/18 01:06:49;;;;;;;4.25;2.38;;;13.80;93.20;;;;;;5004371;28;20117;-31
2022/07/18 01:09:16;;;;;;;4.28;2.45;;;13.80;91.10;;;;;;5018747;28;20208;-32
2022/07/18 01:11:44;;;;;;;3.25;2.40;;;14.00;90.00;;;;;;5003502;28;20061;-31
2022/07/18 01:14:10;;;;;;;4.05;2.60;;;14.00;92.00;;;;;;5001353;28;20623;-31
2022/07/18 01:16:37;;;;;;;4.13;2.63;;;14.00;90.60;;;;;;5005546;28;20037;-31
2022/07/18 01:19:03;;;;;;;2.33;2.17;;;13.90;92.30;;;;;;5017192;28;20065;-31
2022/07/18 01:21:29;;;;;;;2.42;2.05;;;13.70;92.80;;;;;;5002758;28;20517;-32
2022/07/18 01:23:56;;;;;;;3.92;2.45;;;13.80;91.00;;;;;;5003793;28;20072;-32
2022/07/18 01:26:22;;;;;;;3.13;2.83;;;13.40;95.40;;;;;;5004884;28;20045;-32
2022/07/18 01:28:48;;;;;;;3.55;2.90;;;13.30;96.20;;;;;;5017926;28;20137;-32
2022/07/18 01:31:14;;;;;;;3.15;2.50;;;13.20;97.70;;;;;;5000182;28;20037;-32
2022/07/18 01:33:40;;;;;;;2.50;2.30;;;12.50;99.90;;;;;;5003504;28;20487;-31
2022/07/18 01:36:07;;;;;;;3.28;2.70;;;12.50;99.90;;;;;;5002812;28;20648;-31
2022/07/18 01:38:35;;;;;;;3.33;3.00;;;12.80;98.00;;;;;;5005490;28;20034;-31
2022/07/18 01:41:02;;;;;;;3.83;2.65;;;13.00;99.00;;;;;;5000434;28;20048;-32
2022/07/18 01:43:28;;;;;;;3.60;2.85;;;13.00;98.60;;;;;;5003434;28;20124;-32
2022/07/18 01:45:55;;;;;;;8.38;3.17;;;13.00;96.80;;;;;;5002265;28;20030;-32
2022/07/18 01:48:23;;;;;;;2.60;2.40;;;13.20;96.20;;;;;;5006245;28;20037;-32
2022/07/18 01:50:49;;;;;;;2.88;2.67;;;13.30;95.40;;;;;;5005791;28;20053;-32
2022/07/18 01:53:15;;;;;;;5.10;2.78;;;13.30;94.50;;;;;;5024536;28;20053;-31
2022/07/18 01:55:41;;;;;;;2.65;2.45;;;13.40;94.10;;;;;;5006878;28;20036;-32
2022/07/18 01:58:07;;;;;;;3.00;2.45;;;13.40;94.30;;;;;;5003962;28;20121;-31
2022/07/18 02:00:33;;;;;;;3.22;2.80;;;13.50;93.50;;;;;;5005672;28;20133;-32
2022/07/18 02:02:59;;;;;;;3.13;2.83;;;13.50;93.40;;;;;;5007805;28;20029;-32
2022/07/18 02:05:25;;;;;;;3.47;2.50;;;13.50;93.60;;;;;;5007182;28;20030;-31
2022/07/18 02:07:51;;;;;;;4.80;2.40;;;13.40;93.40;;;;;;5004763;28;20029;-31
2022/07/18 02:10:20;;;;;;;4.65;2.70;;;13.40;92.90;;;;;;5006708;28;20037;-31
2022/07/18 02:12:47;;;;;;;2.88;2.67;;;13.40;92.10;;;;;;5006067;28;20026;-32
2022/07/18 02:15:15;;;;;;;3.25;2.95;;;13.50;92.10;;;;;;5009400;28;20030;-32
2022/07/18 02:17:41;;;;;;;3.97;2.85;;;13.50;92.40;;;;;;5007662;28;20030;-32
2022/07/18 02:20:11;;;;;;;2.95;2.70;;;13.40;92.60;;;;;;5006342;28;20459;-31
2022/07/18 02:22:37;;;;;;;2.63;2.42;;;13.40;93.00;;;;;;5007667;28;20495;-31
2022/07/18 02:25:04;;;;;;;2.83;2.63;;;13.40;92.40;;;;;;5005592;28;20114;-31
2022/07/18 02:27:30;;;;;;;4.03;3.08;;;13.40;92.30;;;;;;5005143;28;20030;-31
2022/07/18 02:29:57;;;;;;;3.28;2.58;;;13.40;92.30;;;;;;5007098;28;20491;-32
2022/07/18 02:32:23;;;;;;;3.97;2.60;;;13.50;92.10;;;;;;5002501;28;20038;-32
2022/07/18 02:34:49;;;;;;;3.13;2.80;;;13.50;92.90;;;;;;5023547;28;20124;-31
2022/07/18 02:37:16;;;;;;;3.05;2.75;;;13.50;92.40;;;;;;5006122;28;20513;-31
2022/07/18 02:39:42;;;;;;;3.05;2.75;;;13.40;92.60;;;;;;5007467;28;20026;-31
2022/07/18 02:42:08;;;;;;;3.55;2.92;;;13.40;93.00;;;;;;5003776;28;20046;-31
2022/07/18 02:44:34;;;;;;;2.90;2.70;;;13.40;93.30;;;;;;5005596;28;20038;-31
2022/07/18 02:47:00;;;;;;;3.15;2.70;;;13.30;93.50;;;;;;5022449;28;20057;-32
2022/07/18 02:49:26;;;;;;;2.60;2.40;;;13.30;94.90;;;;;;5003237;28;20057;-31
2022/07/18 02:52:00;;;;;;;2.80;2.60;;;13.20;95.00;;;;;;5006918;28;21634;-31
2022/07/18 02:54:30;;;;;;;3.40;3.10;;;12.70;97.70;;;;;;5022227;28;20048;-31
2022/07/18 02:56:56;;;;;;;3.67;2.85;;;12.30;99.90;;;;;;5006306;28;20022;-33
2022/07/18 02:59:23;;;;;;;3.95;3.00;;;12.10;99.90;;;;;;4986856;28;20368;-32
2022/07/18 03:01:49;;;;;;;3.22;3.00;;;12.00;99.90;;;;;;4998988;28;20030;-32
2022/07/18 03:04:16;;;;;;;3.83;2.92;;;11.90;99.90;;;;;;5005870;28;20109;-32
2022/07/18 03:06:43;;;;;;;3.30;3.03;;;12.10;99.90;;;;;;5005861;28;20446;-32
2022/07/18 03:09:09;;;;;;;3.42;3.10;;;12.30;99.80;;;;;;5002987;28;20030;-32
2022/07/18 03:11:35;;;;;;;4.85;3.55;;;12.40;98.70;;;;;;5004514;28;20111;-32
2022/07/18 03:14:01;;;;;;;3.88;2.85;;;12.50;98.60;;;;;;5005308;28;20037;-32
2022/07/18 03:16:27;;;;;;;2.97;2.70;;;12.40;99.50;;;;;;5005435;28;20418;-32
2022/07/18 03:18:53;;;;;;;5.63;2.90;;;12.40;99.00;;;;;;5003485;28;20494;-31
2022/07/18 03:21:20;;;;;;;3.90;3.30;;;12.50;97.90;;;;;;4984942;28;21473;-32
2022/07/18 03:23:46;;;;;;;3.50;3.20;;;12.50;99.90;;;;;;4990377;28;20030;-31
2022/07/18 03:26:12;;;;;;;3.22;2.92;;;12.50;98.80;;;;;;5004575;28;20112;-31
2022/07/18 03:28:38;;;;;;;3.80;3.00;;;12.60;97.10;;;;;;5006550;28;20029;-31
2022/07/18 03:31:05;;;;;;;5.68;3.05;;;12.50;98.80;;;;;;5005304;28;20061;-32
2022/07/18 03:33:32;;;;;;;3.33;3.00;;;12.00;99.90;;;;;;5004000;28;20048;-31
2022/07/18 03:35:58;;;;;;;3.33;3.03;;;11.60;99.90;;;;;;5005057;28;20030;-32
2022/07/18 03:38:24;;;;;;;3.47;3.20;;;11.70;99.90;;;;;;5018726;28;20107;-31
2022/07/18 03:40:50;;;;;;;3.20;2.90;;;11.80;99.90;;;;;;5005621;28;20526;-31
2022/07/18 03:43:16;;;;;;;3.63;3.00;;;11.80;99.90;;;;;;5003016;28;20116;-31
2022/07/18 03:45:42;;;;;;;3.20;2.90;;;11.90;99.90;;;;;;5004203;28;20598;-31
2022/07/18 03:48:08;;;;;;;3.80;3.50;;;12.00;99.70;;;;;;5003980;28;20025;-32
2022/07/18 03:50:34;;;;;;;4.45;3.30;;;12.10;98.90;;;;;;5004331;28;20037;-32
2022/07/18 03:53:00;;;;;;;3.45;3.13;;;12.10;99.30;;;;;;5002205;28;20053;-31
2022/07/18 03:55:27;;;;;;;3.55;3.25;;;12.10;99.30;;;;;;5009213;28;20068;-31
2022/07/18 03:57:53;;;;;;;4.47;3.10;;;12.30;98.60;;;;;;5001234;28;20029;-31
2022/07/18 04:00:19;;;;;;;3.58;3.10;;;12.30;98.40;;;;;;5007123;28;20052;-31
2022/07/18 04:02:47;;;;;;;4.90;3.83;;;12.50;97.70;;;;;;5004637;28;20033;-31
2022/07/18 04:05:15;;;;;;;4.95;3.22;;;12.60;97.60;;;;;;5008107;28;20088;-31
2022/07/18 04:07:41;;;;;;;4.03;3.28;;;12.60;97.40;;;;;;5004314;28;20040;-32
2022/07/18 04:10:08;;;;;;;3.58;3.28;;;12.70;97.90;;;;;;5000752;28;20039;-32
2022/07/18 04:12:34;;;;;;;3.10;2.80;;;12.70;96.80;;;;;;5003159;28;20148;-31
2022/07/18 04:15:02;;;;;;;3.47;2.75;;;12.70;95.70;;;;;;5005683;28;20105;-31
2022/07/18 04:17:29;;;;;;;3.60;2.72;;;12.70;95.90;;;;;;5004360;28;20032;-31
2022/07/18 04:19:55;;;;;;;4.05;2.90;;;12.80;96.60;;;;;;5002663;28;20084;-31
2022/07/18 04:22:20;;;;;;;6.03;3.00;;;12.70;96.30;;;;;;5001895;28;20030;-32
2022/07/18 04:24:46;;;;;;;2.97;2.67;;;12.70;97.60;;;;;;5004307;28;20553;-32
2022/07/18 04:27:13;;;;;;;2.95;2.70;;;12.70;97.20;;;;;;5002600;28;20030;-31
2022/07/18 04:29:39;;;;;;;5.35;3.00;;;12.70;97.40;;;;;;5002837;28;20078;-32
2022/07/18 04:32:05;;;;;;;4.82;3.28;;;12.80;97.10;;;;;;4997752;28;20510;-31
2022/07/18 04:34:31;;;;;;;3.67;3.03;;;12.90;97.10;;;;;;5013736;28;20494;-32
2022/07/18 04:36:57;;;;;;;4.25;2.97;;;13.00;97.60;;;;;;5003129;28;20037;-33
2022/07/18 04:39:23;;;;;;;3.65;3.35;;;13.00;98.30;;;;;;4999677;28;20025;-33
2022/07/18 04:41:48;;;;;;;5.20;3.42;;;13.10;97.40;;;;;;5004591;28;20033;-31
2022/07/18 04:44:14;;;;;;;4.47;3.63;;;13.10;96.90;;;;;;5005234;28;20022;-33
2022/07/18 04:46:40;;;;;;;5.25;3.60;;;13.20;96.60;;;;;;5022842;28;20030;-32
2022/07/18 04:49:06;;;;;;;3.70;3.40;;;13.30;96.90;;;;;;4985857;28;20501;-32
2022/07/18 04:51:33;;;;;;;4.30;3.72;;;13.40;97.30;;;;;;5003141;28;20482;-32
2022/07/18 04:53:58;;;;;;;3.60;3.17;;;13.40;97.90;;;;;;5002075;28;20041;-31
2022/07/18 04:56:24;;;;;;;4.43;3.53;;;13.50;98.20;;;;;;5004174;28;21047;-32
2022/07/18 04:58:51;;;;;;;4.00;3.60;;;13.60;96.30;;;;;;5002015;28;21902;-32
2022/07/18 05:01:17;;;;;;;3.60;3.30;;;13.80;95.30;;;;;;4998425;28;20037;-31
2022/07/18 05:03:43;;;;;;;4.90;3.10;;;14.00;96.00;;;;;;4999355;28;20017;-32
2022/07/18 05:06:10;;;;;;;6.63;3.85;;;14.10;95.00;;;;;;5002231;28;20026;-33
2022/07/18 05:08:35;;;;;;;3.95;3.47;;;14.10;97.10;;;;;;5002984;28;20034;-32
2022/07/18 05:11:01;;;;;;;5.22;3.50;;;14.10;96.50;;;;;;5004152;28;20052;-31
2022/07/18 05:13:28;;;;;;;5.68;3.67;;;14.30;95.60;;;;;;5003806;28;20503;-32
2022/07/18 05:15:54;;;;;;;11.25;4.63;;;14.50;95.20;;;;;;5016071;28;20091;-32
2022/07/18 05:18:19;;;;;;;4.70;3.42;;;14.70;94.80;;;;;;5002296;28;20557;-32
2022/07/18 05:20:46;;;;;;;5.18;3.80;;;14.90;94.60;;;;;;5006215;28;20030;-32
2022/07/18 05:23:15;;;;;;;3.85;3.28;;;15.00;93.20;;;;;;5024858;28;20017;-32
2022/07/18 05:25:41;;;;;;;3.65;3.35;;;15.10;92.90;;;;;;5008079;28;20041;-32
2022/07/18 05:28:06;;;;;;;4.65;3.65;;;15.10;95.00;;;;;;5025980;28;20049;-32
2022/07/18 05:30:32;;;;;;;4.35;3.50;;;15.20;92.80;;;;;;5005441;28;20076;-32
2022/07/18 05:32:58;;;;;;;3.58;3.28;;;15.40;92.90;;;;;;5004613;28;20033;-32
2022/07/18 05:35:24;;;;;;;4.80;3.50;;;15.50;92.00;;;;;;5007443;28;20402;-32
2022/07/18 05:37:51;;;;;;;5.10;4.43;;;15.60;93.30;;;;;;5004620;28;20061;-33
2022/07/18 05:40:17;;;;;;;4.15;3.75;;;15.60;93.60;;;;;;5006536;28;20022;-32
2022/07/18 05:42:43;;;;;;;4.20;3.55;;;15.70;92.60;;;;;;5004326;28;20441;-32
2022/07/18 05:45:09;;;;;;;4.22;3.83;;;15.80;92.50;;;;;;5004506;28;20018;-32
2022/07/18 05:47:35;;;;;;;5.72;4.43;;;15.90;91.40;;;;;;5002239;28;20038;-32
2022/07/18 05:50:02;;;;;;;4.43;3.63;;;16.20;90.60;;;;;;5004477;28;20033;-32
2022/07/18 05:52:28;;;;;;;4.85;3.70;;;16.30;89.80;;;;;;4998892;28;20050;-32
2022/07/18 05:54:54;;;;;;;5.80;4.10;;;16.40;90.00;;;;;;5001751;28;20037;-33
2022/07/18 05:57:20;;;;;;;4.57;4.18;;;16.40;91.30;;;;;;5004514;28;20050;-32
2022/07/18 05:59:46;;;;;;;4.20;3.70;;;16.60;91.80;;;;;;5022579;28;20091;-32
2022/07/18 06:02:12;;;;;;;5.13;3.72;;;16.60;91.80;;;;;;5004774;28;20129;-34
2022/07/18 06:04:38;;;;;;;4.68;3.95;;;16.90;91.10;;;;;;5006967;28;20101;-32
2022/07/18 06:07:04;;;;;;;4.50;3.78;;;17.10;91.00;;;;;;5004837;28;20037;-31
2022/07/18 06:09:31;;;;;;;7.78;3.85;;;17.30;89.10;;;;;;5000819;28;20041;-31
2022/07/18 06:12:00;;;;;;;6.68;3.42;;;17.50;87.60;;;;;;5003172;28;20145;-31
2022/07/18 06:14:28;;;;;;;5.28;3.92;;;17.80;85.10;;;;;;5007193;28;20038;-31
2022/07/18 06:16:54;;;;;;;4.50;3.50;;;17.90;82.80;;;;;;5002875;28;20062;-31
2022/07/18 06:19:20;;;;;;;4.13;3.72;;;17.90;77.80;;;;;;5006962;28;20308;-32
2022/07/18 06:21:46;;;;;;;4.20;3.80;;;18.10;77.90;;;;;;5006081;28;20141;-32
2022/07/18 06:24:13;;;;;;;4.30;3.92;;;18.20;78.20;;;;;;5002996;28;20023;-31
2022/07/18 06:26:39;;;;;;;4.13;3.70;;;18.30;82.20;;;;;;5022029;28;20061;-32
2022/07/18 06:29:04;;;;;;;4.53;3.38;;;18.30;81.20;;;;;;5001339;28;20053;-33
2022/07/18 06:31:30;;;;;;;4.38;3.97;;;18.50;81.40;;;;;;5000696;28;20038;-32
2022/07/18 06:33:57;;;;;;;5.80;3.85;;;18.80;79.10;;;;;;5002433;28;20109;-33
2022/07/18 06:36:26;;;;;;;4.63;3.80;;;18.90;77.40;;;;;;4996101;28;20030;-31
2022/07/18 06:38:52;;;;;;;5.22;3.70;;;18.90;78.20;;;;;;5003496;28;20124;-32
2022/07/18 06:41:19;;;;;;;4.10;3.70;;;19.30;76.70;;;;;;5006079;28;20041;-32
2022/07/18 06:43:45;;;;;;;4.60;3.58;;;19.10;75.80;;;;;;5005697;28;20395;-32
2022/07/18 06:46:11;;;;;;;4.60;4.10;;;19.10;78.60;;;;;;5021904;28;20371;-31
2022/07/18 06:48:38;;;;;;;4.45;3.63;;;19.20;76.00;;;;;;4988369;28;20037;-31
2022/07/18 06:51:05;;;;;;;4.18;3.72;;;19.40;76.90;;;;;;5007577;28;20404;-31
2022/07/18 06:53:32;;;;;;;5.80;3.93;;;19.60;76.10;;;;;;5005298;28;20053;-32
2022/07/18 06:55:58;;;;;;;5.15;3.70;;;19.70;76.30;;;;;;5005974;28;20299;-31
2022/07/18 06:58:24;;;;;;;5.10;3.53;;;19.90;75.80;;;;;;5004144;28;20037;-32
2022/07/18 07:00:52;;;;;;;4.68;3.65;;;20.00;72.60;;;;;;5003417;28;20126;-32
2022/07/18 07:03:18;;;;;;;4.50;3.50;;;20.20;73.20;;;;;;5004226;28;20041;-33
2022/07/18 07:05:44;;;;;;;3.92;3.55;;;20.30;71.80;;;;;;5005393;28;20025;-32
2022/07/18 07:08:10;;;;;;;4.07;3.33;;;20.60;69.70;;;;;;5002653;28;20398;-32
2022/07/18 07:10:38;;;;;;;3.75;3.30;;;20.70;68.80;;;;;;5008238;28;20030;-32
2022/07/18 07:13:03;;;;;;;;;;;21.00;69.00;;;;;;5003823;28;20033;-31
2022/07/18 07:15:29;;;;;;;5.35;3.80;;;21.20;64.10;;;;;;5003134;28;19910;-33
2022/07/18 07:17:55;;;;;;;4.65;3.42;;;21.50;65.80;;;;;;5002778;28;20037;-33
2022/07/18 07:20:21;;;;;;;4.00;3.10;;;21.60;62.40;;;;;;5006020;28;20038;-32
2022/07/18 07:22:57;;;;;;;56.80;5.88;;;21.80;66.20;;;;;;5003231;28;20427;-32
2022/07/18 07:25:26;;;;;;;5.22;3.30;;;22.20;61.70;;;;;;4998329;28;20030;-32
2022/07/18 07:27:54;;;;;;;3.55;2.90;;;22.50;60.80;;;;;;5000774;28;20033;-32
2022/07/18 07:30:20;;;;;;;3.00;2.80;;;22.90;59.50;;;;;;5000865;28;20030;-33
2022/07/18 07:32:47;;;;;;;3.30;2.90;;;23.10;53.60;;;;;;5001137;28;20052;-33
2022/07/18 07:35:15;;;;;;;3.33;3.03;;;23.30;55.50;;;;;;5004417;28;20038;-32
2022/07/18 07:37:43;;;;;;;;;;;23.60;54.10;;;;;;5021820;28;20040;-32
2022/07/18 07:40:10;;;;;;;3.22;2.92;;;23.70;52.90;;;;;;5004229;28;20384;-32
2022/07/18 07:42:36;;;;;;;3.40;2.75;;;23.70;52.30;;;;;;5004651;28;20033;-34
2022/07/18 07:45:04;;;;;;;4.50;2.80;;;24.00;53.80;;;;;;5002911;28;20065;-32
2022/07/18 07:47:30;;;;;;;4.32;2.95;;;24.00;51.10;;;;;;5000380;28;20088;-32
2022/07/18 07:49:57;;;;;;;5.15;3.17;;;24.10;50.60;;;;;;5020527;28;20030;-32
2022/07/18 07:52:24;;;;;;;4.93;3.30;;;24.30;51.70;;;;;;5004634;28;20062;-31
2022/07/18 07:54:51;;;;;;;3.55;2.53;;;24.50;48.50;;;;;;5001930;28;20022;-33
2022/07/18 07:57:17;;;;;;;3.47;2.67;;;24.40;48.50;;;;;;4999781;28;20076;-31
2022/07/18 07:59:43;;;;;;;2.85;2.50;;;24.50;47.20;;;;;;4999182;28;20124;-32
2022/07/18 08:02:09;;;;;;;3.72;2.53;;;24.90;47.70;;;;;;5017805;28;20046;-32
2022/07/18 08:04:36;;;;;;;3.22;2.90;;;25.30;45.80;;;;;;5002758;28;20052;-31
2022/07/18 08:07:02;;;;;;;6.03;2.78;;;25.40;45.50;;;;;;5003702;28;20025;-31
2022/07/18 08:09:29;;;;;;;2.67;2.47;;;25.70;45.70;;;;;;5003467;28;20029;-31
2022/07/18 08:11:55;;;;;;;3.50;2.50;;;26.00;45.80;;;;;;5003474;28;20030;-32
2022/07/18 08:14:21;;;;;;;5.22;2.50;;;26.30;43.40;;;;;;5003549;28;20454;-32
2022/07/18 08:16:48;;;;;;;2.05;1.95;;;26.30;40.70;;;;;;5006821;28;21231;-31
2022/07/18 08:19:14;;;;;;;4.60;2.20;;;26.00;38.40;;;;;;5003083;28;20034;-31
2022/07/18 08:21:40;;;;;;;5.72;2.03;;;25.90;39.60;;;;;;5001063;28;20038;-32
2022/07/18 08:24:06;;;;;;;4.40;2.20;;;26.20;38.50;;;;;;5003796;28;20036;-32
2022/07/18 08:26:35;;;;;;;1.80;1.70;;;26.50;39.10;;;;;;4997793;28;20057;-32
2022/07/18 08:29:02;;;;;;;1.98;1.75;;;26.60;34.30;;;;;;5016963;28;20495;-31
2022/07/18 08:31:29;;;;;;;2.10;1.88;;;26.40;34.60;;;;;;4998351;28;20030;-32
2022/07/18 08:33:55;;;;;;;3.03;2.72;;;26.20;34.40;;;;;;5003487;28;20061;-32
2022/07/18 08:36:21;;;;;;;1.83;1.70;;;26.30;34.50;;;;;;5018014;28;20030;-32
2022/07/18 08:38:47;;;;;;;3.83;2.10;;;26.50;33.60;;;;;;5002460;28;20120;-32
2022/07/18 08:41:16;;;;;;;4.75;2.20;;;26.70;33.70;;;;;;5001526;28;20188;-32
2022/07/18 08:43:46;;;;;;;2.20;2.00;;;26.60;35.90;;;;;;5002354;28;20022;-32
2022/07/18 08:46:12;;;;;;;2.65;1.80;;;26.70;36.60;;;;;;5005610;28;20032;-31
2022/07/18 08:48:42;;;;;;;2.70;2.03;;;27.00;34.90;;;;;;5018387;28;20824;-32
2022/07/18 08:51:09;;;;;;;2.20;2.00;;;27.00;33.90;;;;;;5020060;28;20030;-32
2022/07/18 08:53:37;;;;;;;4.25;1.80;;;27.20;32.60;;;;;;5001443;28;20046;-33
2022/07/18 08:56:04;;;;;;;1.83;1.70;;;27.50;31.30;;;;;;5001764;28;20117;-32
2022/07/18 08:58:30;;;;;;;2.15;1.90;;;27.50;31.50;;;;;;5001580;28;20060;-33
2022/07/18 09:00:59;;;;;;;2.03;1.80;;;27.50;31.10;;;;;;4982447;28;20031;-33
2022/07/18 09:03:26;;;;;;;2.35;1.80;;;27.40;29.10;;;;;;5017597;28;20084;-32
2022/07/18 09:06:13;;;;;;;2.50;1.87;;;27.30;29.00;;;;;;5000742;28;20121;-33
2022/07/18 09:08:57;;;;;;;2.77;1.80;;;27.30;29.40;;;;;;5018890;28;20100;-30
2022/07/18 09:11:24;;;;;;;2.95;1.52;;;27.40;30.20;;;;;;5001424;28;20025;-32
2022/07/18 09:13:51;;;;;;;1.50;1.40;;;27.40;28.20;;;;;;5018287;28;20608;-33
2022/07/18 09:16:17;;;;;;;1.60;1.45;;;27.00;28.20;;;;;;5001852;28;20030;-31
2022/07/18 09:18:47;;;;;;;1.92;1.67;;;27.30;29.70;;;;;;5014106;28;20037;-31
2022/07/18 09:21:19;;;;;;;2.28;1.50;;;27.70;29.20;;;;;;5001410;28;20030;-32
2022/07/18 09:23:50;;;;;;;1.95;1.75;;;27.80;29.30;;;;;;5001298;28;20021;-32
2022/07/18 09:26:46;;;;;;;1.60;1.50;;;28.00;28.30;;;;;;5002589;28;20030;-31
2022/07/18 09:29:16;;;;;;;2.97;1.60;;;28.30;28.80;;;;;;4994492;28;20491;-31
2022/07/18 09:31:52;;;;;;;2.17;1.52;;;28.70;28.10;;;;;;5001767;28;20632;-32
2022/07/18 09:34:33;;;;;;;2.00;1.90;;;29.20;29.20;;;;;;5001639;28;20133;-32
2022/07/18 09:36:59;;;;;;;1.60;1.50;;;29.20;29.30;;;;;;5003434;28;20129;-32
2022/07/18 09:39:25;;;;;;;2.40;1.73;;;28.80;28.10;;;;;;5005584;28;20030;-33
2022/07/18 09:41:51;;;;;;;3.00;1.70;;;28.60;27.20;;;;;;5000717;28;20433;-32
2022/07/18 09:44:17;;;;;;;2.15;1.80;;;28.50;28.40;;;;;;5012293;28;20112;-32
2022/07/18 09:47:03;;;;;;;1.92;1.60;;;28.70;27.90;;;;;;5004139;28;20483;-33
2022/07/18 09:49:39;;;;;;;1.50;1.40;;;28.70;28.00;;;;;;4985476;28;20045;-32
2022/07/18 09:52:08;;;;;;;1.40;1.30;;;28.60;27.20;;;;;;5001887;28;20050;-33
2022/07/18 09:54:42;;;;;;;2.22;1.70;;;28.60;27.70;;;;;;5014561;28;20068;-33
2022/07/18 09:57:22;;;;;;;2.10;1.40;;;28.60;26.30;;;;;;5000683;28;20101;-32
2022/07/18 09:59:48;;;;;;;1.88;1.60;;;28.50;26.40;;;;;;5000589;28;20041;-32
2022/07/18 10:02:14;;;;;;;1.80;1.70;;;28.60;27.90;;;;;;5001888;28;20045;-32
2022/07/18 10:04:40;;;;;;;2.55;1.80;;;28.80;27.10;;;;;;4996165;28;20037;-32
2022/07/18 10:07:07;;;;;;;1.70;1.60;;;28.80;26.60;;;;;;5003332;28;20088;-33
2022/07/18 10:09:34;;;;;;;2.08;1.73;;;29.20;26.20;;;;;;5020824;28;20026;-32
2022/07/18 10:12:00;;;;;;;4.13;2.03;;;29.20;25.70;;;;;;5001550;28;20486;-32
2022/07/18 10:14:27;;;;;;;1.50;1.40;;;29.40;26.70;;;;;;5001302;28;20495;-32
2022/07/18 10:16:54;;;;;;;1.70;1.60;;;29.70;26.40;;;;;;5016130;28;20038;-32
2022/07/18 10:19:20;;;;;;;2.00;1.77;;;29.80;25.50;;;;;;5007182;28;20133;-32
2022/07/18 10:21:49;;;;;;;1.80;1.60;;;29.90;26.10;;;;;;5006743;28;20022;-31
2022/07/18 10:24:18;;;;;;;2.28;1.60;;;29.80;25.40;;;;;;5005020;28;20148;-32
2022/07/18 10:26:43;;;;;;;2.35;1.80;;;29.80;25.70;;;;;;5006757;28;20127;-32
2022/07/18 10:29:19;;;;;;;4.20;1.75;;;29.90;27.70;;;;;;5006119;28;20120;-32
2022/07/18 10:32:31;;;;;;;2.53;1.90;;;29.50;26.50;;;;;;5000854;28;20034;-32
2022/07/18 10:34:57;;;;;;;2.17;1.73;;;29.30;27.20;;;;;;5006912;28;20157;-32
2022/07/18 10:37:25;;;;;;;1.88;1.77;;;29.20;26.90;;;;;;5007113;28;20042;-31
2022/07/18 10:39:51;;;;;;;3.25;1.50;;;29.80;27.00;;;;;;5007464;28;20022;-32
2022/07/18 10:42:20;;;;;;;1.65;1.55;;;29.60;25.90;;;;;;5008357;28;20034;-33
2022/07/18 10:44:46;;;;;;;11.70;2.45;;;29.50;26.30;;;;;;5016610;28;22816;-33
2022/07/18 10:47:19;;;;;;;2.23;1.60;;;29.30;25.90;;;;;;5016898;28;20041;-32
2022/07/18 10:49:57;;;;;;;1.75;1.60;;;29.20;27.00;;;;;;5005125;28;20049;-32
2022/07/18 10:52:27;;;;;;;4.60;1.67;;;29.20;27.00;;;;;;5001757;28;20045;-32
2022/07/18 10:57:29;;;;;;;2.00;1.70;;;29.10;26.70;;;;;;5006796;28;20041;-33
2022/07/18 11:00:25;;;;;;;1.65;1.40;;;29.00;25.90;;;;;;5014581;28;20034;-31
2022/07/18 11:03:00;;;;;;;2.10;1.60;;;29.30;25.70;;;;;;5022336;28;20376;-32
2022/07/18 11:05:26;;;;;;;1.48;1.38;;;29.60;26.60;;;;;;5005639;28;20030;-32
2022/07/18 11:07:58;;;;;;;1.90;1.50;;;29.80;26.90;;;;;;5007986;28;20040;-32
2022/07/18 11:13:29;;;;;;;4.72;1.67;;;30.00;24.70;;;;;;5002409;28;20045;-31
2022/07/18 11:16:06;;;;;;;2.30;1.45;;;29.70;25.40;;;;;;5004259;28;20061;-33
2022/07/18 11:18:42;;;;;;;2.88;1.42;;;29.40;25.60;;;;;;5003075;28;20041;-33
2022/07/18 11:21:28;;;;;;;1.70;1.60;;;29.20;25.00;;;;;;5005820;28;20033;-32
2022/07/18 11:24:00;;;;;;;2.70;1.60;;;29.00;26.60;;;;;;5019677;28;20625;-32
2022/07/18 11:26:27;;;;;;;2.28;1.50;;;29.20;25.90;;;;;;5002073;28;20021;-32
2022/07/18 11:28:58;;;;;;;1.67;1.50;;;29.40;25.20;;;;;;5018471;28;20092;-32
2022/07/18 11:31:27;;;;;;;2.65;1.50;;;29.20;25.10;;;;;;4998730;28;20850;-32
2022/07/18 11:33:54;;;;;;;2.28;1.70;;;29.10;25.70;;;;;;5002380;28;20754;-32
2022/07/18 11:36:27;;;;;;;1.70;1.20;;;29.30;25.70;;;;;;5002155;28;20037;-31
2022/07/18 11:38:57;;;;;;;2.90;1.45;;;29.40;25.80;;;;;;5003438;28;20025;-32
2022/07/18 11:41:23;;;;;;;2.13;1.80;;;29.40;26.10;;;;;;5003874;28;20080;-32
2022/07/18 11:43:52;;;;;;;1.47;1.37;;;29.20;25.90;;;;;;5017496;28;20033;-32
2022/07/18 11:46:22;;;;;;;1.40;1.30;;;29.00;25.40;;;;;;5020794;28;20527;-32
2022/07/18 11:48:57;;;;;;;1.58;1.48;;;29.10;26.50;;;;;;5005033;28;21114;-33
2022/07/18 11:51:23;;;;;;;2.00;1.55;;;28.90;25.40;;;;;;5020552;28;20026;-31
2022/07/18 11:53:54;;;;;;;1.63;1.52;;;29.00;27.00;;;;;;5005982;28;20054;-32
2022/07/18 11:56:22;;;;;;;1.55;1.45;;;29.10;25.90;;;;;;5005385;28;20044;-32
2022/07/18 11:58:50;;;;;;;67.57;5.13;;;29.00;24.70;;;;;;5003042;28;20037;-32
2022/07/18 12:01:15;;;;;;;13.13;1.98;;;28.90;25.40;;;;;;5003639;28;20116;-32
2022/07/18 12:03:46;;;;;;;3.58;1.55;;;29.20;26.10;;;;;;5005096;28;20038;-32
2022/07/18 12:06:19;;;;;;;1.50;1.40;;;29.20;24.40;;;;;;5005239;28;20032;-32
2022/07/18 12:08:53;;;;;;;3.33;1.45;;;29.20;25.10;;;;;;5003650;28;20095;-32
2022/07/18 12:11:26;;;;;;;1.38;1.27;;;29.10;24.80;;;;;;5018831;28;20030;-32
2022/07/18 12:13:54;;;;;;;1.90;1.40;;;29.10;26.10;;;;;;5006556;28;20026;-31
2022/07/18 12:16:29;;;;;;;1.55;1.45;;;29.10;25.90;;;;;;5001942;28;20553;-32
2022/07/18 12:19:12;;;;;;;1.90;1.40;;;29.20;25.60;;;;;;5003214;28;20034;-32
2022/07/18 12:21:48;;;;;;;2.10;1.50;;;29.30;26.50;;;;;;5000808;28;20467;-32
2022/07/18 12:24:32;;;;;;;2.88;1.52;;;29.30;26.00;;;;;;5002722;28;20037;-32
2022/07/18 12:27:12;;;;;;;1.42;1.30;;;29.50;25.20;;;;;;5005512;28;20030;-32
2022/07/18 12:30:02;;;;;;;1.40;1.30;;;29.40;25.40;;;;;;5003073;28;20038;-32
2022/07/18 12:32:35;;;;;;;3.38;1.45;;;29.30;26.00;;;;;;5016353;28;20042;-32
2022/07/18 12:35:05;;;;;;;1.80;1.30;;;29.30;24.60;;;;;;5004045;28;20509;-33
2022/07/18 12:37:31;;;;;;;2.40;1.52;;;29.30;24.30;;;;;;5002101;28;20084;-32
2022/07/18 12:40:03;;;;;;;1.85;1.30;;;29.40;25.30;;;;;;5000761;28;20026;-32
2022/07/18 12:42:36;;;;;;;1.30;1.20;;;29.40;24.50;;;;;;5002802;28;20026;-33
2022/07/18 12:45:04;;;;;;;1.50;1.40;;;29.50;25.20;;;;;;5002299;28;20022;-32
2022/07/18 12:47:30;;;;;;;2.00;1.38;;;29.50;24.60;;;;;;4988666;28;20557;-32
2022/07/18 12:49:57;;;;;;;1.63;1.30;;;29.60;24.50;;;;;;4995746;28;20033;-33
2022/07/18 12:52:23;;;;;;;1.92;1.75;;;29.60;25.30;;;;;;4998217;28;20096;-33
2022/07/18 12:54:51;;;;;;;1.50;1.40;;;29.60;24.80;;;;;;5005285;28;20034;-33
2022/07/18 12:57:20;;;;;;;1.98;1.38;;;29.60;25.50;;;;;;5002172;28;20061;-32